sensor_id;sensor_type;location;lat;lon;timestamp;P1;durP1;ratioP1;P2;durP2;ratioP2
60935;SDS011;46804;51.786;19.520;2022-10-31T00:02:48;39.08;;;19.55;;
60935;SDS011;46804;51.786;19.520;2022-10-31T00:06:49;40.72;;;18.83;;
60935;SDS011;46804;51.786;19.520;2022-10-31T00:10:49;33.92;;;18.40;;
60935;SDS011;46804;51.786;19.520;2022-10-31T00:14:50;43.03;;;20.45;;
60935;SDS011;46804;51.786;19.520;2022-10-31T00:18:51;49.50;;;22.95;;
60935;SDS011;46804;51.786;19.520;2022-10-31T00:22:53;41.80;;;22.73;;
60935;SDS011;46804;51.786;19.520;2022-10-31T00:26:53;49.83;;;24.13;;
60935;SDS011;46804;51.786;19.520;2022-10-31T00:30:54;44.45;;;23.67;;
60935;SDS011;46804;51.786;19.520;2022-10-31T00:34:54;48.15;;;24.63;;
60935;SDS011;46804;51.786;19.520;2022-10-31T00:38:55;48.38;;;23.88;;
60935;SDS011;46804;51.786;19.520;2022-10-31T00:42:55;39.85;;;23.80;;
60935;SDS011;46804;51.786;19.520;2022-10-31T00:46:56;43.63;;;23.58;;
60935;SDS011;46804;51.786;19.520;2022-10-31T00:50:56;35.80;;;22.25;;
60935;SDS011;46804;51.786;19.520;2022-10-31T00:54:57;43.10;;;21.58;;
60935;SDS011;46804;51.786;19.520;2022-10-31T00:58:57;31.92;;;20.63;;
60935;SDS011;46804;51.786;19.520;2022-10-31T01:02:58;42.70;;;21.48;;
60935;SDS011;46804;51.786;19.520;2022-10-31T01:06:58;34.67;;;19.63;;
60935;SDS011;46804;51.786;19.520;2022-10-31T01:19:15;41.25;;;22.33;;
60935;SDS011;46804;51.786;19.520;2022-10-31T01:23:16;45.95;;;22.88;;
60935;SDS011;46804;51.786;19.520;2022-10-31T01:27:16;44.13;;;22.63;;
60935;SDS011;46804;51.786;19.520;2022-10-31T01:31:17;42.83;;;22.02;;
60935;SDS011;46804;51.786;19.520;2022-10-31T01:35:20;45.72;;;22.48;;
60935;SDS011;46804;51.786;19.520;2022-10-31T01:39:20;46.17;;;22.80;;
60935;SDS011;46804;51.786;19.520;2022-10-31T01:43:21;45.38;;;23.25;;
60935;SDS011;46804;51.786;19.520;2022-10-31T01:47:24;43.28;;;23.45;;
60935;SDS011;46804;51.786;19.520;2022-10-31T01:51:33;42.42;;;22.63;;
60935;SDS011;46804;51.786;19.520;2022-10-31T01:55:38;42.35;;;23.52;;
60935;SDS011;46804;51.786;19.520;2022-10-31T01:59:46;42.95;;;23.83;;
60935;SDS011;46804;51.786;19.520;2022-10-31T02:03:49;43.88;;;22.60;;
60935;SDS011;46804;51.786;19.520;2022-10-31T02:07:53;40.03;;;22.77;;
60935;SDS011;46804;51.786;19.520;2022-10-31T02:11:57;77.57;;;22.70;;
60935;SDS011;46804;51.786;19.520;2022-10-31T02:15:59;262.58;;;26.48;;
60935;SDS011;46804;51.786;19.520;2022-10-31T02:20:04;189.05;;;27.50;;
60935;SDS011;46804;51.786;19.520;2022-10-31T02:24:24;199.40;;;28.70;;
60935;SDS011;46804;51.786;19.520;2022-10-31T02:33:15;226.38;;;24.30;;
60935;SDS011;46804;51.786;19.520;2022-10-31T02:37:25;219.45;;;24.85;;
60935;SDS011;46804;51.786;19.520;2022-10-31T02:41:48;88.05;;;20.95;;
60935;SDS011;46804;51.786;19.520;2022-10-31T02:46:03;246.68;;;24.95;;
60935;SDS011;46804;51.786;19.520;2022-10-31T02:50:18;215.70;;;26.35;;
60935;SDS011;46804;51.786;19.520;2022-10-31T02:54:23;164.30;;;26.08;;
60935;SDS011;46804;51.786;19.520;2022-10-31T02:58:26;203.15;;;26.85;;
60935;SDS011;46804;51.786;19.520;2022-10-31T03:11:24;57.17;;;23.35;;
60935;SDS011;46804;51.786;19.520;2022-10-31T03:15:33;70.78;;;21.42;;
60935;SDS011;46804;51.786;19.520;2022-10-31T03:19:39;90.47;;;19.95;;
60935;SDS011;46804;51.786;19.520;2022-10-31T03:23:43;73.45;;;20.13;;
60935;SDS011;46804;51.786;19.520;2022-10-31T03:27:46;47.40;;;17.75;;
60935;SDS011;46804;51.786;19.520;2022-10-31T03:31:59;49.28;;;17.90;;
60935;SDS011;46804;51.786;19.520;2022-10-31T03:40:04;46.25;;;18.00;;
60935;SDS011;46804;51.786;19.520;2022-10-31T03:44:13;55.67;;;19.38;;
60935;SDS011;46804;51.786;19.520;2022-10-31T03:48:17;62.13;;;20.08;;
60935;SDS011;46804;51.786;19.520;2022-10-31T03:52:36;60.57;;;23.03;;
60935;SDS011;46804;51.786;19.520;2022-10-31T03:56:43;53.53;;;19.45;;
60935;SDS011;46804;51.786;19.520;2022-10-31T04:00:50;53.00;;;20.88;;
60935;SDS011;46804;51.786;19.520;2022-10-31T04:04:52;59.17;;;20.42;;
60935;SDS011;46804;51.786;19.520;2022-10-31T04:08:57;40.33;;;19.15;;
60935;SDS011;46804;51.786;19.520;2022-10-31T04:13:02;47.72;;;18.48;;
60935;SDS011;46804;51.786;19.520;2022-10-31T04:17:07;61.45;;;19.02;;
60935;SDS011;46804;51.786;19.520;2022-10-31T04:21:10;44.33;;;19.27;;
60935;SDS011;46804;51.786;19.520;2022-10-31T04:25:11;54.20;;;20.17;;
60935;SDS011;46804;51.786;19.520;2022-10-31T04:29:11;40.63;;;17.63;;
60935;SDS011;46804;51.786;19.520;2022-10-31T04:33:12;40.20;;;18.77;;
60935;SDS011;46804;51.786;19.520;2022-10-31T04:37:12;55.78;;;18.27;;
60935;SDS011;46804;51.786;19.520;2022-10-31T04:41:13;55.35;;;18.48;;
60935;SDS011;46804;51.786;19.520;2022-10-31T04:45:14;52.17;;;18.30;;
60935;SDS011;46804;51.786;19.520;2022-10-31T04:49:14;72.53;;;19.73;;
60935;SDS011;46804;51.786;19.520;2022-10-31T04:53:15;41.90;;;19.50;;
60935;SDS011;46804;51.786;19.520;2022-10-31T04:57:15;35.90;;;17.35;;
60935;SDS011;46804;51.786;19.520;2022-10-31T05:01:16;40.20;;;19.80;;
60935;SDS011;46804;51.786;19.520;2022-10-31T05:05:17;39.22;;;17.73;;
60935;SDS011;46804;51.786;19.520;2022-10-31T05:09:19;44.50;;;18.30;;
60935;SDS011;46804;51.786;19.520;2022-10-31T05:13:20;44.15;;;19.65;;
60935;SDS011;46804;51.786;19.520;2022-10-31T05:17:20;40.28;;;19.30;;
60935;SDS011;46804;51.786;19.520;2022-10-31T05:21:21;51.40;;;20.00;;
60935;SDS011;46804;51.786;19.520;2022-10-31T05:25:22;41.50;;;18.00;;
60935;SDS011;46804;51.786;19.520;2022-10-31T05:29:24;36.97;;;18.33;;
60935;SDS011;46804;51.786;19.520;2022-10-31T05:33:25;38.60;;;16.70;;
60935;SDS011;46804;51.786;19.520;2022-10-31T05:37:25;33.72;;;16.10;;
60935;SDS011;46804;51.786;19.520;2022-10-31T05:41:26;35.00;;;15.98;;
60935;SDS011;46804;51.786;19.520;2022-10-31T05:45:26;35.15;;;16.88;;
60935;SDS011;46804;51.786;19.520;2022-10-31T05:49:27;45.10;;;19.30;;
60935;SDS011;46804;51.786;19.520;2022-10-31T05:53:27;41.08;;;19.92;;
60935;SDS011;46804;51.786;19.520;2022-10-31T05:57:28;34.28;;;18.17;;
60935;SDS011;46804;51.786;19.520;2022-10-31T06:01:29;46.03;;;17.70;;
60935;SDS011;46804;51.786;19.520;2022-10-31T06:05:30;30.83;;;17.55;;
60935;SDS011;46804;51.786;19.520;2022-10-31T06:09:30;39.38;;;16.92;;
60935;SDS011;46804;51.786;19.520;2022-10-31T06:13:31;36.65;;;17.95;;
60935;SDS011;46804;51.786;19.520;2022-10-31T06:17:32;52.42;;;22.05;;
60935;SDS011;46804;51.786;19.520;2022-10-31T06:21:34;40.28;;;20.25;;
60935;SDS011;46804;51.786;19.520;2022-10-31T06:25:34;36.60;;;19.30;;
60935;SDS011;46804;51.786;19.520;2022-10-31T06:29:35;43.17;;;21.60;;
60935;SDS011;46804;51.786;19.520;2022-10-31T06:33:35;41.17;;;23.58;;
60935;SDS011;46804;51.786;19.520;2022-10-31T06:37:36;51.03;;;28.00;;
60935;SDS011;46804;51.786;19.520;2022-10-31T06:41:37;53.85;;;26.05;;
60935;SDS011;46804;51.786;19.520;2022-10-31T06:45:40;34.25;;;22.25;;
60935;SDS011;46804;51.786;19.520;2022-10-31T06:49:40;46.60;;;24.45;;
60935;SDS011;46804;51.786;19.520;2022-10-31T06:53:41;43.45;;;24.65;;
60935;SDS011;46804;51.786;19.520;2022-10-31T06:57:41;50.33;;;24.92;;
60935;SDS011;46804;51.786;19.520;2022-10-31T07:01:42;45.08;;;23.98;;
60935;SDS011;46804;51.786;19.520;2022-10-31T07:05:44;52.45;;;25.13;;
60935;SDS011;46804;51.786;19.520;2022-10-31T07:09:44;55.42;;;23.63;;
60935;SDS011;46804;51.786;19.520;2022-10-31T07:13:45;61.92;;;25.50;;
60935;SDS011;46804;51.786;19.520;2022-10-31T07:17:45;69.40;;;25.92;;
60935;SDS011;46804;51.786;19.520;2022-10-31T07:21:46;50.60;;;23.33;;
60935;SDS011;46804;51.786;19.520;2022-10-31T07:25:47;68.20;;;27.98;;
60935;SDS011;46804;51.786;19.520;2022-10-31T07:29:47;73.75;;;24.13;;
60935;SDS011;46804;51.786;19.520;2022-10-31T07:33:48;52.50;;;23.15;;
60935;SDS011;46804;51.786;19.520;2022-10-31T07:37:48;85.22;;;24.98;;
60935;SDS011;46804;51.786;19.520;2022-10-31T07:41:49;71.10;;;25.77;;
60935;SDS011;46804;51.786;19.520;2022-10-31T07:45:50;72.10;;;27.48;;
60935;SDS011;46804;51.786;19.520;2022-10-31T07:49:52;63.15;;;25.77;;
60935;SDS011;46804;51.786;19.520;2022-10-31T07:53:52;72.47;;;24.38;;
60935;SDS011;46804;51.786;19.520;2022-10-31T07:57:57;62.58;;;23.77;;
60935;SDS011;46804;51.786;19.520;2022-10-31T08:01:58;64.60;;;25.42;;
60935;SDS011;46804;51.786;19.520;2022-10-31T08:05:59;75.05;;;26.90;;
60935;SDS011;46804;51.786;19.520;2022-10-31T08:09:59;79.80;;;27.02;;
60935;SDS011;46804;51.786;19.520;2022-10-31T08:14:00;96.55;;;26.40;;
60935;SDS011;46804;51.786;19.520;2022-10-31T08:18:00;105.50;;;29.75;;
60935;SDS011;46804;51.786;19.520;2022-10-31T08:22:02;64.15;;;26.20;;
60935;SDS011;46804;51.786;19.520;2022-10-31T08:26:02;62.88;;;27.48;;
60935;SDS011;46804;51.786;19.520;2022-10-31T08:30:03;86.15;;;40.20;;
60935;SDS011;46804;51.786;19.520;2022-10-31T08:34:04;104.38;;;32.40;;
60935;SDS011;46804;51.786;19.520;2022-10-31T08:38:04;88.32;;;29.40;;
60935;SDS011;46804;51.786;19.520;2022-10-31T08:42:05;97.82;;;35.72;;
60935;SDS011;46804;51.786;19.520;2022-10-31T08:46:06;76.45;;;37.75;;
60935;SDS011;46804;51.786;19.520;2022-10-31T08:50:07;83.88;;;48.55;;
60935;SDS011;46804;51.786;19.520;2022-10-31T08:54:07;78.47;;;36.67;;
60935;SDS011;46804;51.786;19.520;2022-10-31T08:58:12;76.18;;;29.60;;
60935;SDS011;46804;51.786;19.520;2022-10-31T09:02:14;95.22;;;33.83;;
60935;SDS011;46804;51.786;19.520;2022-10-31T09:06:15;74.55;;;33.38;;
60935;SDS011;46804;51.786;19.520;2022-10-31T09:10:15;105.75;;;40.40;;
60935;SDS011;46804;51.786;19.520;2022-10-31T09:14:16;65.35;;;30.73;;
60935;SDS011;46804;51.786;19.520;2022-10-31T09:18:17;52.15;;;30.08;;
60935;SDS011;46804;51.786;19.520;2022-10-31T09:22:19;72.03;;;27.27;;
60935;SDS011;46804;51.786;19.520;2022-10-31T09:26:20;78.15;;;30.77;;
60935;SDS011;46804;51.786;19.520;2022-10-31T09:30:21;80.00;;;37.50;;
60935;SDS011;46804;51.786;19.520;2022-10-31T09:34:22;93.25;;;40.25;;
60935;SDS011;46804;51.786;19.520;2022-10-31T09:38:22;124.15;;;44.35;;
60935;SDS011;46804;51.786;19.520;2022-10-31T09:47:23;137.50;;;54.80;;
60935;SDS011;46804;51.786;19.520;2022-10-31T09:55:43;113.72;;;57.38;;
60935;SDS011;46804;51.786;19.520;2022-10-31T09:59:47;61.70;;;33.15;;
60935;SDS011;46804;51.786;19.520;2022-10-31T10:03:50;87.55;;;30.02;;
60935;SDS011;46804;51.786;19.520;2022-10-31T10:12:19;136.40;;;74.63;;
60935;SDS011;46804;51.786;19.520;2022-10-31T10:25:27;44.63;;;23.88;;
60935;SDS011;46804;51.786;19.520;2022-10-31T10:29:34;39.03;;;22.67;;
60935;SDS011;46804;51.786;19.520;2022-10-31T10:33:44;41.50;;;25.17;;
60935;SDS011;46804;51.786;19.520;2022-10-31T10:42:19;65.80;;;35.00;;
60935;SDS011;46804;51.786;19.520;2022-10-31T10:51:15;49.40;;;23.90;;
60935;SDS011;46804;51.786;19.520;2022-10-31T10:55:40;45.42;;;25.67;;
60935;SDS011;46804;51.786;19.520;2022-10-31T10:59:49;51.03;;;26.95;;
60935;SDS011;46804;51.786;19.520;2022-10-31T11:03:51;50.55;;;28.55;;
60935;SDS011;46804;51.786;19.520;2022-10-31T11:07:51;51.30;;;28.13;;
60935;SDS011;46804;51.786;19.520;2022-10-31T11:11:52;46.67;;;26.17;;
60935;SDS011;46804;51.786;19.520;2022-10-31T11:24:14;43.17;;;23.33;;
60935;SDS011;46804;51.786;19.520;2022-10-31T11:28:19;41.15;;;24.27;;
60935;SDS011;46804;51.786;19.520;2022-10-31T11:32:20;40.90;;;22.40;;
60935;SDS011;46804;51.786;19.520;2022-10-31T11:36:28;35.92;;;21.30;;
60935;SDS011;46804;51.786;19.520;2022-10-31T11:40:31;35.00;;;20.42;;
60935;SDS011;46804;51.786;19.520;2022-10-31T11:44:31;36.33;;;21.85;;
60935;SDS011;46804;51.786;19.520;2022-10-31T11:48:33;35.03;;;20.33;;
60935;SDS011;46804;51.786;19.520;2022-10-31T11:52:33;36.25;;;21.50;;
60935;SDS011;46804;51.786;19.520;2022-10-31T11:56:41;33.08;;;19.77;;
60935;SDS011;46804;51.786;19.520;2022-10-31T12:00:47;30.88;;;18.80;;
60935;SDS011;46804;51.786;19.520;2022-10-31T12:05:04;32.20;;;19.10;;
60935;SDS011;46804;51.786;19.520;2022-10-31T12:09:29;29.50;;;18.83;;
60935;SDS011;46804;51.786;19.520;2022-10-31T12:13:34;36.63;;;21.48;;
60935;SDS011;46804;51.786;19.520;2022-10-31T12:17:42;29.95;;;19.88;;
60935;SDS011;46804;51.786;19.520;2022-10-31T12:22:16;33.65;;;21.15;;
60935;SDS011;46804;51.786;19.520;2022-10-31T12:26:29;30.95;;;19.75;;
60935;SDS011;46804;51.786;19.520;2022-10-31T12:34:55;33.45;;;18.30;;
60935;SDS011;46804;51.786;19.520;2022-10-31T12:43:56;31.50;;;18.80;;
60935;SDS011;46804;51.786;19.520;2022-10-31T12:48:10;29.53;;;17.60;;
60935;SDS011;46804;51.786;19.520;2022-10-31T12:52:34;35.47;;;19.25;;
60935;SDS011;46804;51.786;19.520;2022-10-31T12:57:46;30.20;;;18.83;;
60935;SDS011;46804;51.786;19.520;2022-10-31T13:01:27;31.65;;;19.45;;
60935;SDS011;46804;51.786;19.520;2022-10-31T13:05:41;29.77;;;18.83;;
60935;SDS011;46804;51.786;19.520;2022-10-31T13:09:47;31.15;;;18.63;;
60935;SDS011;46804;51.786;19.520;2022-10-31T13:14:11;30.75;;;17.60;;
60935;SDS011;46804;51.786;19.520;2022-10-31T13:18:27;29.60;;;17.63;;
60935;SDS011;46804;51.786;19.520;2022-10-31T13:22:33;33.05;;;18.02;;
60935;SDS011;46804;51.786;19.520;2022-10-31T13:26:37;29.48;;;16.55;;
60935;SDS011;46804;51.786;19.520;2022-10-31T13:30:41;27.23;;;16.27;;
60935;SDS011;46804;51.786;19.520;2022-10-31T13:34:44;31.10;;;15.85;;
60935;SDS011;46804;51.786;19.520;2022-10-31T13:47:25;26.45;;;15.13;;
60935;SDS011;46804;51.786;19.520;2022-10-31T13:51:28;26.10;;;15.50;;
60935;SDS011;46804;51.786;19.520;2022-10-31T13:55:50;28.15;;;16.30;;
60935;SDS011;46804;51.786;19.520;2022-10-31T14:08:40;21.55;;;13.68;;
60935;SDS011;46804;51.786;19.520;2022-10-31T14:12:47;23.23;;;14.38;;
60935;SDS011;46804;51.786;19.520;2022-10-31T14:16:53;27.88;;;14.25;;
60935;SDS011;46804;51.786;19.520;2022-10-31T14:20:56;27.33;;;13.68;;
60935;SDS011;46804;51.786;19.520;2022-10-31T14:24:57;23.05;;;11.73;;
60935;SDS011;46804;51.786;19.520;2022-10-31T14:28:59;22.25;;;12.73;;
60935;SDS011;46804;51.786;19.520;2022-10-31T14:33:16;25.67;;;12.52;;
60935;SDS011;46804;51.786;19.520;2022-10-31T14:54:38;28.00;;;14.05;;
60935;SDS011;46804;51.786;19.520;2022-10-31T14:58:42;27.17;;;14.70;;
60935;SDS011;46804;51.786;19.520;2022-10-31T15:03:24;29.38;;;14.90;;
60935;SDS011;46804;51.786;19.520;2022-10-31T15:07:16;29.45;;;15.38;;
60935;SDS011;46804;51.786;19.520;2022-10-31T15:11:25;27.45;;;16.20;;
60935;SDS011;46804;51.786;19.520;2022-10-31T15:15:27;28.40;;;16.17;;
60935;SDS011;46804;51.786;19.520;2022-10-31T15:19:28;29.58;;;17.58;;
60935;SDS011;46804;51.786;19.520;2022-10-31T15:23:30;40.90;;;19.57;;
60935;SDS011;46804;51.786;19.520;2022-10-31T15:27:31;51.58;;;24.08;;
60935;SDS011;46804;51.786;19.520;2022-10-31T15:31:33;50.70;;;28.48;;
60935;SDS011;46804;51.786;19.520;2022-10-31T15:35:34;52.95;;;27.38;;
60935;SDS011;46804;51.786;19.520;2022-10-31T15:39:34;46.05;;;26.35;;
60935;SDS011;46804;51.786;19.520;2022-10-31T15:43:36;48.42;;;25.30;;
60935;SDS011;46804;51.786;19.520;2022-10-31T15:51:44;53.40;;;27.83;;
60935;SDS011;46804;51.786;19.520;2022-10-31T15:55:46;48.10;;;27.42;;
60935;SDS011;46804;51.786;19.520;2022-10-31T15:59:50;49.45;;;27.88;;
60935;SDS011;46804;51.786;19.520;2022-10-31T16:03:59;50.10;;;27.30;;
60935;SDS011;46804;51.786;19.520;2022-10-31T16:08:20;58.53;;;27.53;;
60935;SDS011;46804;51.786;19.520;2022-10-31T16:12:29;52.33;;;27.48;;
60935;SDS011;46804;51.786;19.520;2022-10-31T16:16:44;48.28;;;26.05;;
60935;SDS011;46804;51.786;19.520;2022-10-31T16:20:49;47.00;;;26.77;;
60935;SDS011;46804;51.786;19.520;2022-10-31T16:29:22;54.70;;;30.83;;
60935;SDS011;46804;51.786;19.520;2022-10-31T16:33:32;54.90;;;28.98;;
60935;SDS011;46804;51.786;19.520;2022-10-31T16:37:39;52.30;;;30.75;;
60935;SDS011;46804;51.786;19.520;2022-10-31T16:41:41;50.40;;;28.17;;
60935;SDS011;46804;51.786;19.520;2022-10-31T16:45:44;54.88;;;33.80;;
60935;SDS011;46804;51.786;19.520;2022-10-31T16:49:48;58.40;;;31.73;;
60935;SDS011;46804;51.786;19.520;2022-10-31T16:53:51;63.80;;;35.10;;
60935;SDS011;46804;51.786;19.520;2022-10-31T16:57:52;96.40;;;38.92;;
60935;SDS011;46804;51.786;19.520;2022-10-31T17:05:56;67.78;;;42.33;;
60935;SDS011;46804;51.786;19.520;2022-10-31T17:09:57;51.97;;;30.17;;
60935;SDS011;46804;51.786;19.520;2022-10-31T17:13:57;37.60;;;23.08;;
60935;SDS011;46804;51.786;19.520;2022-10-31T17:17:58;37.53;;;27.25;;
60935;SDS011;46804;51.786;19.520;2022-10-31T17:21:58;36.08;;;23.67;;
60935;SDS011;46804;51.786;19.520;2022-10-31T17:26:01;33.40;;;22.87;;
60935;SDS011;46804;51.786;19.520;2022-10-31T17:30:02;42.22;;;27.35;;
60935;SDS011;46804;51.786;19.520;2022-10-31T17:34:02;50.10;;;26.93;;
60935;SDS011;46804;51.786;19.520;2022-10-31T17:38:05;37.85;;;22.60;;
60935;SDS011;46804;51.786;19.520;2022-10-31T17:42:05;46.97;;;28.80;;
60935;SDS011;46804;51.786;19.520;2022-10-31T17:46:06;52.83;;;31.58;;
60935;SDS011;46804;51.786;19.520;2022-10-31T17:50:07;56.20;;;31.35;;
60935;SDS011;46804;51.786;19.520;2022-10-31T17:54:08;46.85;;;29.42;;
60935;SDS011;46804;51.786;19.520;2022-10-31T17:58:09;47.65;;;27.80;;
60935;SDS011;46804;51.786;19.520;2022-10-31T18:02:11;53.45;;;29.88;;
60935;SDS011;46804;51.786;19.520;2022-10-31T18:06:12;54.38;;;31.48;;
60935;SDS011;46804;51.786;19.520;2022-10-31T18:10:15;54.33;;;30.85;;
60935;SDS011;46804;51.786;19.520;2022-10-31T18:14:16;61.83;;;28.23;;
60935;SDS011;46804;51.786;19.520;2022-10-31T18:18:17;95.72;;;49.88;;
60935;SDS011;46804;51.786;19.520;2022-10-31T18:22:17;104.30;;;49.65;;
60935;SDS011;46804;51.786;19.520;2022-10-31T18:26:18;96.70;;;46.72;;
60935;SDS011;46804;51.786;19.520;2022-10-31T18:30:18;96.72;;;47.95;;
60935;SDS011;46804;51.786;19.520;2022-10-31T18:34:19;126.60;;;53.40;;
60935;SDS011;46804;51.786;19.520;2022-10-31T18:38:19;129.45;;;50.10;;
60935;SDS011;46804;51.786;19.520;2022-10-31T18:42:20;101.00;;;49.53;;
60935;SDS011;46804;51.786;19.520;2022-10-31T18:46:20;95.13;;;47.47;;
60935;SDS011;46804;51.786;19.520;2022-10-31T18:50:21;88.15;;;45.78;;
60935;SDS011;46804;51.786;19.520;2022-10-31T18:54:22;81.45;;;34.75;;
60935;SDS011;46804;51.786;19.520;2022-10-31T18:58:24;57.15;;;28.75;;
60935;SDS011;46804;51.786;19.520;2022-10-31T19:02:25;60.90;;;31.00;;
60935;SDS011;46804;51.786;19.520;2022-10-31T19:06:26;76.88;;;34.33;;
60935;SDS011;46804;51.786;19.520;2022-10-31T19:10:27;108.50;;;37.00;;
60935;SDS011;46804;51.786;19.520;2022-10-31T19:14:28;73.60;;;30.25;;
60935;SDS011;46804;51.786;19.520;2022-10-31T19:18:29;68.07;;;33.22;;
60935;SDS011;46804;51.786;19.520;2022-10-31T19:22:30;78.80;;;36.88;;
60935;SDS011;46804;51.786;19.520;2022-10-31T19:26:31;74.70;;;31.85;;
60935;SDS011;46804;51.786;19.520;2022-10-31T19:30:32;43.75;;;27.67;;
60935;SDS011;46804;51.786;19.520;2022-10-31T19:34:33;43.80;;;24.88;;
60935;SDS011;46804;51.786;19.520;2022-10-31T19:38:34;45.97;;;26.75;;
60935;SDS011;46804;51.786;19.520;2022-10-31T19:42:36;49.50;;;27.90;;
60935;SDS011;46804;51.786;19.520;2022-10-31T19:46:37;57.05;;;26.30;;
60935;SDS011;46804;51.786;19.520;2022-10-31T19:50:37;60.92;;;27.77;;
60935;SDS011;46804;51.786;19.520;2022-10-31T19:54:38;77.95;;;28.00;;
60935;SDS011;46804;51.786;19.520;2022-10-31T19:58:38;94.15;;;27.50;;
60935;SDS011;46804;51.786;19.520;2022-10-31T20:02:39;62.85;;;25.52;;
60935;SDS011;46804;51.786;19.520;2022-10-31T20:06:40;59.78;;;27.25;;
60935;SDS011;46804;51.786;19.520;2022-10-31T20:10:41;49.53;;;27.27;;
60935;SDS011;46804;51.786;19.520;2022-10-31T20:14:52;53.00;;;27.60;;
60935;SDS011;46804;51.786;19.520;2022-10-31T20:18:53;47.67;;;28.23;;
60935;SDS011;46804;51.786;19.520;2022-10-31T20:22:54;60.95;;;27.48;;
60935;SDS011;46804;51.786;19.520;2022-10-31T20:26:55;97.97;;;28.90;;
60935;SDS011;46804;51.786;19.520;2022-10-31T20:30:55;144.30;;;28.38;;
60935;SDS011;46804;51.786;19.520;2022-10-31T20:34:56;240.45;;;31.10;;
60935;SDS011;46804;51.786;19.520;2022-10-31T20:38:56;193.23;;;29.92;;
60935;SDS011;46804;51.786;19.520;2022-10-31T20:42:58;116.75;;;29.63;;
60935;SDS011;46804;51.786;19.520;2022-10-31T20:47:00;153.52;;;38.38;;
60935;SDS011;46804;51.786;19.520;2022-10-31T20:51:02;84.18;;;35.05;;
60935;SDS011;46804;51.786;19.520;2022-10-31T20:55:09;74.55;;;35.80;;
60935;SDS011;46804;51.786;19.520;2022-10-31T20:59:10;83.22;;;37.33;;
60935;SDS011;46804;51.786;19.520;2022-10-31T21:03:11;335.45;;;45.05;;
60935;SDS011;46804;51.786;19.520;2022-10-31T21:07:12;438.98;;;49.03;;
60935;SDS011;46804;51.786;19.520;2022-10-31T21:11:14;365.27;;;46.00;;
60935;SDS011;46804;51.786;19.520;2022-10-31T21:15:16;324.73;;;42.47;;
60935;SDS011;46804;51.786;19.520;2022-10-31T21:19:17;190.38;;;36.58;;
60935;SDS011;46804;51.786;19.520;2022-10-31T21:23:17;174.75;;;33.38;;
60935;SDS011;46804;51.786;19.520;2022-10-31T21:27:18;147.40;;;30.33;;
60935;SDS011;46804;51.786;19.520;2022-10-31T21:31:19;123.15;;;28.27;;
60935;SDS011;46804;51.786;19.520;2022-10-31T21:35:19;161.77;;;30.88;;
60935;SDS011;46804;51.786;19.520;2022-10-31T21:39:20;72.65;;;28.30;;
60935;SDS011;46804;51.786;19.520;2022-10-31T21:43:21;43.10;;;24.00;;
60935;SDS011;46804;51.786;19.520;2022-10-31T21:47:21;40.83;;;24.10;;
60935;SDS011;46804;51.786;19.520;2022-10-31T21:51:25;41.63;;;24.63;;
60935;SDS011;46804;51.786;19.520;2022-10-31T21:55:27;48.65;;;24.42;;
60935;SDS011;46804;51.786;19.520;2022-10-31T21:59:28;37.03;;;21.45;;
60935;SDS011;46804;51.786;19.520;2022-10-31T22:03:33;44.47;;;23.30;;
60935;SDS011;46804;51.786;19.520;2022-10-31T22:07:34;50.22;;;24.85;;
60935;SDS011;46804;51.786;19.520;2022-10-31T22:11:35;56.17;;;25.77;;
60935;SDS011;46804;51.786;19.520;2022-10-31T22:15:36;105.32;;;27.15;;
60935;SDS011;46804;51.786;19.520;2022-10-31T22:19:37;170.95;;;31.95;;
60935;SDS011;46804;51.786;19.520;2022-10-31T22:23:37;142.00;;;32.20;;
60935;SDS011;46804;51.786;19.520;2022-10-31T22:27:38;175.20;;;34.17;;
60935;SDS011;46804;51.786;19.520;2022-10-31T22:31:39;71.50;;;29.83;;
60935;SDS011;46804;51.786;19.520;2022-10-31T22:35:41;198.82;;;30.15;;
60935;SDS011;46804;51.786;19.520;2022-10-31T22:39:42;152.32;;;26.60;;
60935;SDS011;46804;51.786;19.520;2022-10-31T22:43:42;91.82;;;25.35;;
60935;SDS011;46804;51.786;19.520;2022-10-31T22:47:43;93.30;;;25.80;;
60935;SDS011;46804;51.786;19.520;2022-10-31T22:51:44;121.13;;;24.60;;
60935;SDS011;46804;51.786;19.520;2022-10-31T22:55:44;102.03;;;23.98;;
60935;SDS011;46804;51.786;19.520;2022-10-31T22:59:45;66.30;;;21.05;;
60935;SDS011;46804;51.786;19.520;2022-10-31T23:03:45;66.65;;;21.25;;
60935;SDS011;46804;51.786;19.520;2022-10-31T23:07:47;65.82;;;20.50;;
60935;SDS011;46804;51.786;19.520;2022-10-31T23:11:47;69.82;;;19.55;;
60935;SDS011;46804;51.786;19.520;2022-10-31T23:15:48;44.28;;;18.77;;
60935;SDS011;46804;51.786;19.520;2022-10-31T23:19:48;68.43;;;21.15;;
60935;SDS011;46804;51.786;19.520;2022-10-31T23:23:51;43.13;;;21.57;;
60935;SDS011;46804;51.786;19.520;2022-10-31T23:27:51;66.20;;;23.10;;
60935;SDS011;46804;51.786;19.520;2022-10-31T23:31:52;123.20;;;26.60;;
60935;SDS011;46804;51.786;19.520;2022-10-31T23:35:53;139.65;;;25.40;;
60935;SDS011;46804;51.786;19.520;2022-10-31T23:39:54;115.57;;;27.08;;
60935;SDS011;46804;51.786;19.520;2022-10-31T23:43:55;132.15;;;26.27;;
60935;SDS011;46804;51.786;19.520;2022-10-31T23:47:55;135.80;;;27.02;;
60935;SDS011;46804;51.786;19.520;2022-10-31T23:51:56;58.15;;;24.15;;
60935;SDS011;46804;51.786;19.520;2022-10-31T23:55:57;98.25;;;27.20;;
60935;SDS011;46804;51.786;19.520;2022-10-31T23:59:57;79.07;;;21.85;;
